createdAt,value
2022-12-20T00:02:15.270Z,100.00
2022-12-20T00:04:47.600Z,100.00
2022-12-20T00:07:19.668Z,100.00
2022-12-20T00:09:51.286Z,100.00
2022-12-20T00:12:23.027Z,100.00
2022-12-20T00:14:55.243Z,100.00
2022-12-20T00:17:26.998Z,100.00
2022-12-20T00:19:58.617Z,100.00
2022-12-20T00:22:30.775Z,100.00
2022-12-20T00:25:02.433Z,100.00
2022-12-20T00:27:34.342Z,100.00
2022-12-20T00:30:07.490Z,100.00
2022-12-20T00:32:39.252Z,100.00
2022-12-20T00:35:13.053Z,100.00
2022-12-20T00:37:45.382Z,100.00
2022-12-20T00:40:17.448Z,100.00
2022-12-20T00:42:49.247Z,100.00
2022-12-20T00:45:21.101Z,100.00
2022-12-20T00:47:52.719Z,100.00
2022-12-20T00:50:24.383Z,100.00
2022-12-20T00:52:56.033Z,100.00
2022-12-20T00:55:27.737Z,100.00
2022-12-20T00:57:59.555Z,100.00
2022-12-20T01:00:31.208Z,100.00
2022-12-20T01:03:03.135Z,100.00
2022-12-20T01:05:36.255Z,100.00
2022-12-20T01:08:09.023Z,100.00
2022-12-20T01:10:39.152Z,100.00
2022-12-20T01:13:11.177Z,100.00
2022-12-20T01:15:42.927Z,100.00
2022-12-20T01:18:14.543Z,100.00
2022-12-20T01:20:46.778Z,100.00
2022-12-20T01:23:18.424Z,100.00
2022-12-20T01:25:53.360Z,100.00
2022-12-20T01:28:25.307Z,100.00
2022-12-20T01:30:57.106Z,100.00
2022-12-20T01:33:28.975Z,100.00
2022-12-20T01:36:02.688Z,100.00
2022-12-20T01:38:35.391Z,100.00
2022-12-20T01:41:08.042Z,100.00
2022-12-20T01:43:52.682Z,100.00
2022-12-20T01:46:25.681Z,100.00
2022-12-20T01:49:03.999Z,100.00
2022-12-20T01:51:41.380Z,100.00
2022-12-20T01:54:18.047Z,100.00
2022-12-20T01:56:55.310Z,100.00
2022-12-20T01:59:28.483Z,100.00
2022-12-20T02:02:03.808Z,100.00
2022-12-20T02:04:36.419Z,99.87
2022-12-20T02:07:10.129Z,99.96
2022-12-20T02:09:42.572Z,100.00
2022-12-20T02:12:18.655Z,100.00
2022-12-20T02:15:14.251Z,99.95
2022-12-20T02:17:58.461Z,99.39
2022-12-20T02:21:02.263Z,99.19
2022-12-20T02:23:55.023Z,99.71
2022-12-20T02:26:45.377Z,99.61
2022-12-20T02:29:26.652Z,99.98
2022-12-20T02:32:09.761Z,99.56
2022-12-20T02:34:43.127Z,98.86
2022-12-20T02:37:15.508Z,98.38
2022-12-20T02:39:47.714Z,98.23
2022-12-20T02:42:24.893Z,98.62
2022-12-20T02:45:21.077Z,99.20
2022-12-20T02:47:57.676Z,99.13
2022-12-20T02:50:33.583Z,98.61
2022-12-20T02:53:06.825Z,97.99
2022-12-20T02:55:47.263Z,97.61
2022-12-20T02:58:28.758Z,97.31
2022-12-20T03:01:05.219Z,97.23
2022-12-20T03:03:38.227Z,97.14
2022-12-20T03:06:10.729Z,97.24
2022-12-20T03:08:42.924Z,96.88
2022-12-20T03:11:15.814Z,96.40
2022-12-20T03:13:47.632Z,96.19
2022-12-20T03:16:19.415Z,95.99
2022-12-20T03:18:50.488Z,95.54
2022-12-20T03:21:22.139Z,95.66
2022-12-20T03:23:53.790Z,95.75
2022-12-20T03:26:25.750Z,95.69
2022-12-20T03:29:01.085Z,95.08
2022-12-20T03:31:33.459Z,94.93
2022-12-20T03:34:05.666Z,95.04
2022-12-20T03:36:39.115Z,94.73
2022-12-20T03:39:11.132Z,94.49
2022-12-20T03:41:44.559Z,94.57
2022-12-20T03:44:17.620Z,94.38
2022-12-20T03:46:49.588Z,94.27
2022-12-20T03:49:21.385Z,94.16
2022-12-20T03:51:55.040Z,93.89
2022-12-20T03:54:27.264Z,93.31
2022-12-20T03:57:11.069Z,93.07
2022-12-20T03:59:44.122Z,92.94
2022-12-20T04:02:17.992Z,93.09
2022-12-20T04:04:50.367Z,92.90
2022-12-20T04:07:22.982Z,92.54
2022-12-20T04:09:55.542Z,92.37
2022-12-20T04:12:27.804Z,92.50
2022-12-20T04:14:59.512Z,92.34
2022-12-20T04:17:32.442Z,92.18
2022-12-20T04:20:18.986Z,92.00
2022-12-20T04:22:55.703Z,91.99
2022-12-20T04:25:27.599Z,91.69
2022-12-20T04:27:59.519Z,91.46
2022-12-20T04:30:31.605Z,92.06
2022-12-20T04:33:04.260Z,91.84
2022-12-20T04:35:35.972Z,91.57
2022-12-20T04:38:07.887Z,91.23
2022-12-20T04:40:39.772Z,91.61
2022-12-20T04:43:12.862Z,91.40
2022-12-20T04:45:45.219Z,91.25
2022-12-20T04:48:54.722Z,90.93
2022-12-20T04:51:09.273Z,90.59
2022-12-20T04:53:50.011Z,90.50
2022-12-20T04:56:33.551Z,90.32
2022-12-20T04:59:10.946Z,90.84
2022-12-20T05:01:43.401Z,90.75
2022-12-20T05:04:15.800Z,90.53
2022-12-20T05:06:48.358Z,90.13
2022-12-20T05:09:20.389Z,89.78
2022-12-20T05:11:52.089Z,89.47
2022-12-20T05:14:24.238Z,89.80
2022-12-20T05:16:55.896Z,89.58
2022-12-20T05:19:27.385Z,89.31
2022-12-20T05:22:16.520Z,89.10
2022-12-20T05:25:18.365Z,89.06
2022-12-20T05:27:50.197Z,88.82
2022-12-20T05:30:22.153Z,88.77
2022-12-20T05:32:53.956Z,88.50
2022-12-20T05:35:25.932Z,88.33
2022-12-20T05:38:03.865Z,88.34
2022-12-20T05:40:36.111Z,88.29
2022-12-20T05:43:08.447Z,88.35
2022-12-20T05:45:48.542Z,88.38
2022-12-20T05:48:22.452Z,88.19
2022-12-20T05:50:54.304Z,88.02
2022-12-20T05:53:31.721Z,88.19
2022-12-20T05:56:06.058Z,88.10
2022-12-20T05:58:40.405Z,88.26
2022-12-20T06:01:13.677Z,88.14
2022-12-20T06:03:45.934Z,88.26
2022-12-20T06:06:20.765Z,88.27
2022-12-20T06:08:51.809Z,88.30
2022-12-20T06:11:30.816Z,88.36
2022-12-20T06:14:10.208Z,88.16
2022-12-20T06:16:45.744Z,87.79
2022-12-20T06:19:21.564Z,87.50
2022-12-20T06:21:54.777Z,87.19
2022-12-20T06:24:34.735Z,87.25
2022-12-20T06:27:07.775Z,87.15
2022-12-20T06:29:39.612Z,86.86
2022-12-20T06:32:15.874Z,86.87
2022-12-20T06:34:47.633Z,87.06
2022-12-20T06:37:20.057Z,87.01
2022-12-20T06:39:52.092Z,87.22
2022-12-20T06:42:23.937Z,87.14
2022-12-20T06:44:56.704Z,87.36
2022-12-20T06:47:28.839Z,87.73
2022-12-20T06:50:01.106Z,87.53
2022-12-20T06:52:33.019Z,87.73
2022-12-20T06:55:52.359Z,87.63
2022-12-20T06:58:23.989Z,87.60
2022-12-20T07:00:56.738Z,87.56
2022-12-20T07:03:28.233Z,87.45
2022-12-20T07:06:00.591Z,87.30
2022-12-20T07:08:32.465Z,87.39
2022-12-20T07:11:08.244Z,87.45
2022-12-20T07:13:39.925Z,87.29
2022-12-20T07:16:11.587Z,87.29
2022-12-20T07:18:43.349Z,87.02
2022-12-20T07:21:17.279Z,86.86
2022-12-20T07:23:48.818Z,86.57
2022-12-20T07:26:20.191Z,86.17
2022-12-20T07:28:51.662Z,85.86
2022-12-20T07:31:23.071Z,85.56
2022-12-20T07:33:54.399Z,85.35
2022-12-20T07:36:26.052Z,85.41
2022-12-20T07:38:57.800Z,85.59
2022-12-20T07:41:29.594Z,85.71
2022-12-20T07:44:01.394Z,85.82
2022-12-20T07:46:33.569Z,85.52
2022-12-20T07:49:06.380Z,85.10
2022-12-20T07:51:42.423Z,85.18
2022-12-20T07:54:19.063Z,84.99
2022-12-20T07:56:55.835Z,84.78
2022-12-20T07:59:35.198Z,84.91
2022-12-20T08:02:09.045Z,84.95
2022-12-20T08:04:41.073Z,85.22
2022-12-20T08:07:13.313Z,85.60
2022-12-20T08:09:47.260Z,85.71
2022-12-20T08:12:21.623Z,85.72
2022-12-20T08:14:56.270Z,85.69
2022-12-20T08:17:28.194Z,85.56
2022-12-20T08:20:00.754Z,85.71
2022-12-20T08:22:32.447Z,85.76
2022-12-20T08:25:04.788Z,85.64
2022-12-20T08:27:36.453Z,85.61
2022-12-20T08:30:10.847Z,85.53
2022-12-20T08:32:42.737Z,85.58
2022-12-20T08:35:16.148Z,85.39
2022-12-20T08:37:48.315Z,85.27
2022-12-20T08:40:20.839Z,85.07
2022-12-20T08:42:52.538Z,85.21
2022-12-20T08:45:24.173Z,85.27
2022-12-20T08:47:56.027Z,85.12
2022-12-20T08:50:28.379Z,85.18
2022-12-20T08:53:00.154Z,85.17
2022-12-20T08:55:31.848Z,84.89
2022-12-20T08:58:03.591Z,84.61
2022-12-20T09:00:35.365Z,84.78
2022-12-20T09:03:07.961Z,84.75
2022-12-20T09:05:38.347Z,84.77
2022-12-20T09:08:10.013Z,84.70
2022-12-20T09:10:41.885Z,84.70
2022-12-20T09:13:13.822Z,84.68
2022-12-20T09:15:46.006Z,84.37
2022-12-20T09:18:18.544Z,84.45
2022-12-20T09:20:49.636Z,84.39
2022-12-20T09:23:21.341Z,84.16
2022-12-20T09:25:54.137Z,84.09
2022-12-20T09:28:25.914Z,83.81
2022-12-20T09:31:01.940Z,83.59
2022-12-20T09:33:35.659Z,83.61
2022-12-20T09:36:11.662Z,83.70
2022-12-20T09:38:43.371Z,83.82
2022-12-20T09:41:26.437Z,83.62
2022-12-20T09:43:58.374Z,83.69
2022-12-20T09:46:30.379Z,83.59
2022-12-20T09:49:03.650Z,83.16
2022-12-20T09:51:55.683Z,82.98
2022-12-20T09:54:38.615Z,82.75
2022-12-20T09:57:14.260Z,82.43
2022-12-20T09:59:49.768Z,82.40
2022-12-20T10:02:55.555Z,81.92
2022-12-20T10:05:23.763Z,81.78
2022-12-20T10:08:08.079Z,81.35
2022-12-20T10:10:52.545Z,81.29
2022-12-20T10:13:36.865Z,81.38
2022-12-20T10:16:25.730Z,81.67
2022-12-20T10:19:09.769Z,81.52
2022-12-20T10:21:48.921Z,81.59
2022-12-20T10:24:26.324Z,81.20
2022-12-20T10:26:59.829Z,80.38
2022-12-20T10:29:31.602Z,80.26
2022-12-20T10:32:04.413Z,80.20
2022-12-20T10:34:39.103Z,80.23
2022-12-20T10:37:17.463Z,79.90
2022-12-20T10:39:52.440Z,80.00
2022-12-20T10:42:32.915Z,80.07
2022-12-20T10:45:05.869Z,80.02
2022-12-20T10:47:42.836Z,80.15
2022-12-20T10:50:20.091Z,80.23
2022-12-20T10:53:18.581Z,80.35
2022-12-20T10:55:50.464Z,80.25
2022-12-20T10:58:33.489Z,80.38
2022-12-20T11:01:12.614Z,80.63
2022-12-20T11:03:56.289Z,80.72
2022-12-20T11:06:30.851Z,80.89
2022-12-20T11:09:26.330Z,80.64
2022-12-20T11:12:06.403Z,80.80
2022-12-20T11:14:40.171Z,81.05
2022-12-20T11:17:29.185Z,81.08
2022-12-20T11:20:13.553Z,81.18
2022-12-20T11:22:57.038Z,81.19
2022-12-20T11:25:45.411Z,81.41
2022-12-20T11:28:42.141Z,81.24
2022-12-20T11:31:21.698Z,81.14
2022-12-20T11:34:04.423Z,81.07
2022-12-20T11:36:52.823Z,81.21
2022-12-20T11:39:32.931Z,81.00
2022-12-20T11:42:10.947Z,81.01
2022-12-20T11:45:03.529Z,80.98
2022-12-20T11:47:56.698Z,80.94
2022-12-20T11:50:43.423Z,81.14
2022-12-20T11:53:22.079Z,81.28
2022-12-20T11:55:57.308Z,81.49
2022-12-20T11:58:33.858Z,81.54
2022-12-20T12:01:09.906Z,81.69
2022-12-20T12:03:44.588Z,81.59
2022-12-20T12:06:22.907Z,81.82
2022-12-20T12:09:02.679Z,81.84
2022-12-20T12:14:41.779Z,81.88
2022-12-20T12:17:20.525Z,82.05
2022-12-20T12:19:55.721Z,82.26
2022-12-20T12:22:34.338Z,82.82
2022-12-20T12:25:13.873Z,83.65
2022-12-20T12:27:46.544Z,84.02
2022-12-20T12:30:19.357Z,84.24
2022-12-20T12:32:59.370Z,85.13
2022-12-20T12:35:54.926Z,85.52
2022-12-20T12:38:55.646Z,86.00
2022-12-20T12:41:58.528Z,85.84
2022-12-20T12:44:39.593Z,85.73
2022-12-20T12:47:17.194Z,86.07
2022-12-20T12:49:52.810Z,86.20
2022-12-20T12:52:38.335Z,86.00
2022-12-20T12:55:43.557Z,86.01
2022-12-20T12:58:35.943Z,86.23
2022-12-20T13:01:10.222Z,86.04
2022-12-20T13:03:48.084Z,85.91
2022-12-20T13:07:06.518Z,85.77
2022-12-20T13:09:43.520Z,85.50
2022-12-20T13:12:57.457Z,85.28
2022-12-20T13:16:06.517Z,85.05
2022-12-20T13:18:38.098Z,84.67
2022-12-20T13:21:36.101Z,84.53
2022-12-20T13:24:45.049Z,84.40
2022-12-20T13:27:24.812Z,84.47
2022-12-20T13:30:17.306Z,84.40
2022-12-20T13:33:25.646Z,84.29
2022-12-20T13:36:06.123Z,84.16
2022-12-20T13:38:52.618Z,84.10
2022-12-20T13:41:46.159Z,83.99
2022-12-20T13:44:41.296Z,84.06
2022-12-20T13:47:43.096Z,83.93
2022-12-20T13:50:39.083Z,83.79
2022-12-20T13:53:20.935Z,83.62
2022-12-20T13:55:52.441Z,83.61
2022-12-20T13:58:27.728Z,83.34
2022-12-20T14:01:07.430Z,83.43
2022-12-20T14:03:46.684Z,83.43
2022-12-20T14:06:26.566Z,83.70
2022-12-20T14:08:58.904Z,84.01
2022-12-20T14:11:30.504Z,84.18
2022-12-20T14:14:02.969Z,83.95
2022-12-20T14:16:35.331Z,84.12
2022-12-20T14:19:08.809Z,83.94
2022-12-20T14:21:43.677Z,83.86
2022-12-20T14:24:18.648Z,83.68
2022-12-20T14:26:53.865Z,83.48
2022-12-20T14:29:32.491Z,83.42
2022-12-20T14:32:07.164Z,83.35
2022-12-20T14:34:41.978Z,83.36
2022-12-20T14:37:31.680Z,83.16
2022-12-20T14:40:17.389Z,83.11
2022-12-20T14:42:49.407Z,82.92
2022-12-20T14:45:27.399Z,83.09
2022-12-20T14:48:04.574Z,82.85
2022-12-20T14:50:38.352Z,82.62
2022-12-20T14:53:20.221Z,82.30
2022-12-20T14:55:52.688Z,82.22
2022-12-20T14:58:30.761Z,82.25
2022-12-20T15:01:05.193Z,82.02
2022-12-20T15:03:37.395Z,81.89
2022-12-20T15:06:34.393Z,81.86
2022-12-20T15:09:06.647Z,81.94
2022-12-20T15:11:40.253Z,82.03
2022-12-20T15:14:27.316Z,82.14
2022-12-20T15:16:59.386Z,82.17
2022-12-20T15:19:36.306Z,82.17
2022-12-20T15:22:16.801Z,82.11
2022-12-20T15:24:48.589Z,82.16
2022-12-20T15:27:20.259Z,82.03
2022-12-20T15:29:52.313Z,82.29
2022-12-20T15:32:29.637Z,82.20
2022-12-20T15:35:01.829Z,82.23
2022-12-20T15:37:33.524Z,82.23
2022-12-20T15:40:05.973Z,82.02
2022-12-20T15:42:38.338Z,82.06
2022-12-20T15:45:15.300Z,82.17
2022-12-20T15:47:47.137Z,82.24
2022-12-20T15:50:19.162Z,82.20
2022-12-20T15:52:51.043Z,82.13
2022-12-20T15:55:22.905Z,82.19
2022-12-20T15:57:54.809Z,82.24
2022-12-20T16:00:29.420Z,82.29
2022-12-20T16:03:01.815Z,82.20
2022-12-20T16:05:36.081Z,81.98
2022-12-20T16:08:08.668Z,82.04
2022-12-20T16:10:40.616Z,82.05
2022-12-20T16:13:21.080Z,82.29
2022-12-20T16:15:53.771Z,82.35
2022-12-20T16:18:24.351Z,82.26
2022-12-20T16:20:56.184Z,82.29
2022-12-20T16:23:27.984Z,82.33
2022-12-20T16:25:59.789Z,82.24
2022-12-20T16:28:31.921Z,82.13
2022-12-20T16:31:13.471Z,82.27
2022-12-20T16:33:45.440Z,82.17
2022-12-20T16:36:17.564Z,82.09
2022-12-20T16:38:49.449Z,82.19
2022-12-20T16:41:23.800Z,82.28
2022-12-20T16:43:57.100Z,82.27
2022-12-20T16:46:32.358Z,82.19
2022-12-20T16:49:06.696Z,82.37
2022-12-20T16:51:44.558Z,82.42
2022-12-20T16:54:20.752Z,82.32
2022-12-20T16:56:56.126Z,82.29
2022-12-20T16:59:28.504Z,82.14
2022-12-20T17:02:01.863Z,82.17
2022-12-20T17:04:37.034Z,82.10
2022-12-20T17:07:09.029Z,82.14
2022-12-20T17:12:30.384Z,82.08
2022-12-20T17:15:02.122Z,82.03
2022-12-20T17:17:35.138Z,81.91
2022-12-20T17:20:09.146Z,81.91
2022-12-20T17:22:41.362Z,81.79
2022-12-20T17:25:30.571Z,81.64
2022-12-20T17:28:02.555Z,81.69
2022-12-20T17:30:34.320Z,81.67
2022-12-20T17:33:06.302Z,81.55
2022-12-20T17:35:38.772Z,81.34
2022-12-20T17:38:09.784Z,81.35
2022-12-20T17:40:41.950Z,81.28
2022-12-20T17:43:16.873Z,81.33
2022-12-20T17:45:48.983Z,81.22
2022-12-20T17:48:20.731Z,81.07
2022-12-20T17:50:52.400Z,80.91
2022-12-20T17:53:24.176Z,80.80
2022-12-20T17:55:55.957Z,80.78
2022-12-20T17:58:27.723Z,80.62
2022-12-20T18:00:59.516Z,80.73
2022-12-20T18:04:02.328Z,80.64
2022-12-20T18:06:24.148Z,80.61
2022-12-20T18:08:57.540Z,80.64
2022-12-20T18:11:33.113Z,80.52
2022-12-20T18:14:05.039Z,80.58
2022-12-20T18:16:39.127Z,80.46
2022-12-20T18:19:17.667Z,80.11
2022-12-20T18:21:49.581Z,80.25
2022-12-20T18:24:22.006Z,80.02
2022-12-20T18:26:53.972Z,80.01
2022-12-20T18:29:25.755Z,79.71
2022-12-20T18:31:57.779Z,79.84
2022-12-20T18:34:29.674Z,79.85
2022-12-20T18:37:02.220Z,79.81
2022-12-20T18:39:34.721Z,79.77
2022-12-20T18:42:06.608Z,79.69
2022-12-20T18:44:38.512Z,79.71
2022-12-20T18:47:10.680Z,79.66
2022-12-20T18:49:42.534Z,79.65
2022-12-20T18:52:14.374Z,79.71
2022-12-20T18:54:46.798Z,79.60
2022-12-20T18:57:18.648Z,79.52
2022-12-20T18:59:51.209Z,79.49
2022-12-20T19:02:23.131Z,79.42
2022-12-20T19:04:54.918Z,79.16
2022-12-20T19:07:26.669Z,79.19
2022-12-20T19:09:58.625Z,79.07
2022-12-20T19:12:30.595Z,78.92
2022-12-20T19:15:05.937Z,78.94
2022-12-20T19:17:37.640Z,78.92
2022-12-20T19:20:11.358Z,78.79
2022-12-20T19:22:43.042Z,78.50
2022-12-20T19:25:14.947Z,78.47
2022-12-20T19:27:46.888Z,78.30
2022-12-20T19:30:19.177Z,78.41
2022-12-20T19:32:51.919Z,78.25
2022-12-20T19:35:54.021Z,78.26
2022-12-20T19:38:15.696Z,78.16
2022-12-20T19:40:54.381Z,78.03
2022-12-20T19:43:26.446Z,78.13
2022-12-20T19:46:00.212Z,78.03
2022-12-20T19:48:32.954Z,77.95
2022-12-20T19:51:04.322Z,77.84
2022-12-20T19:53:36.105Z,78.10
2022-12-20T19:56:09.578Z,77.99
2022-12-20T19:58:42.150Z,77.92
2022-12-20T20:01:14.778Z,77.89
2022-12-20T20:03:45.663Z,77.79
2022-12-20T20:06:17.551Z,77.88
2022-12-20T20:08:49.692Z,77.79
2022-12-20T20:11:21.149Z,77.82
2022-12-20T20:13:53.175Z,77.94
2022-12-20T20:16:26.450Z,78.04
2022-12-20T20:18:59.572Z,78.04
2022-12-20T20:21:31.943Z,77.83
2022-12-20T20:24:04.165Z,77.85
2022-12-20T20:26:37.133Z,77.86
2022-12-20T20:29:10.621Z,78.22
2022-12-20T20:31:42.780Z,78.26
2022-12-20T20:34:14.905Z,78.49
2022-12-20T20:36:47.416Z,79.01
2022-12-20T20:39:19.375Z,79.38
2022-12-20T20:41:51.798Z,79.37
2022-12-20T20:44:23.999Z,79.41
2022-12-20T20:46:56.160Z,79.66
2022-12-20T20:49:28.176Z,79.80
2022-12-20T20:51:59.944Z,79.71
2022-12-20T20:54:31.979Z,79.80
2022-12-20T20:57:04.105Z,79.62
2022-12-20T20:59:37.912Z,79.60
2022-12-20T21:02:13.392Z,79.75
2022-12-20T21:05:07.488Z,79.51
2022-12-20T21:07:41.997Z,79.47
2022-12-20T21:10:15.192Z,79.34
2022-12-20T21:12:49.163Z,79.49
2022-12-20T21:15:24.334Z,79.37
2022-12-20T21:18:00.171Z,79.53
2022-12-20T21:20:32.357Z,79.74
2022-12-20T21:23:04.263Z,79.79
2022-12-20T21:25:37.317Z,79.64
2022-12-20T21:28:10.060Z,79.79
2022-12-20T21:30:41.971Z,79.83
2022-12-20T21:33:13.779Z,79.85
2022-12-20T21:35:51.701Z,79.98
2022-12-20T21:38:25.673Z,79.88
2022-12-20T21:41:03.512Z,79.98
2022-12-20T21:43:36.197Z,80.03
2022-12-20T21:46:11.615Z,80.09
2022-12-20T21:48:45.618Z,80.00
2022-12-20T21:51:19.392Z,80.11
2022-12-20T21:53:53.372Z,80.17
2022-12-20T21:56:26.913Z,80.44
2022-12-20T21:58:59.273Z,80.47
2022-12-20T22:01:31.448Z,80.37
2022-12-20T22:04:05.662Z,80.23
2022-12-20T22:06:38.116Z,80.38
2022-12-20T22:09:11.796Z,80.31
2022-12-20T22:11:43.828Z,80.13
2022-12-20T22:14:16.541Z,80.14
2022-12-20T22:16:48.449Z,80.11
2022-12-20T22:19:32.995Z,79.86
2022-12-20T22:22:04.898Z,79.66
2022-12-20T22:24:37.409Z,79.65
2022-12-20T22:27:11.621Z,79.59
2022-12-20T22:29:44.002Z,79.85
2022-12-20T22:32:16.804Z,79.51
2022-12-20T22:34:48.846Z,79.20
2022-12-20T22:37:21.386Z,79.15
2022-12-20T22:39:53.763Z,78.98
2022-12-20T22:42:32.455Z,79.00
2022-12-20T22:45:12.127Z,79.06
2022-12-20T22:47:56.833Z,78.98
2022-12-20T22:50:29.660Z,78.91
2022-12-20T22:53:09.344Z,79.01
2022-12-20T22:55:53.042Z,78.88
2022-12-20T22:58:24.966Z,78.99
2022-12-20T23:01:00.916Z,78.92
2022-12-20T23:03:34.184Z,78.92
2022-12-20T23:06:09.877Z,78.83
2022-12-20T23:08:46.110Z,78.89
2022-12-20T23:11:38.725Z,79.00
2022-12-20T23:14:32.580Z,78.87
2022-12-20T23:17:05.479Z,78.92
2022-12-20T23:19:51.639Z,78.84
2022-12-20T23:22:41.967Z,78.57
2022-12-20T23:25:16.254Z,78.78
2022-12-20T23:27:50.008Z,78.57
2022-12-20T23:30:24.599Z,78.41
2022-12-20T23:32:57.175Z,78.63
2022-12-20T23:35:29.625Z,78.26
2022-12-20T23:38:02.223Z,78.31
2022-12-20T23:40:34.336Z,78.35
2022-12-20T23:43:06.826Z,78.40
2022-12-20T23:45:39.022Z,78.39
2022-12-20T23:48:11.942Z,78.36
2022-12-20T23:50:44.067Z,78.42
2022-12-20T23:53:16.732Z,78.28
2022-12-20T23:55:56.644Z,78.28
2022-12-20T23:58:29.421Z,78.30
